Time,TemperatureF,DewpointF,PressureIn,WindDirection,WindDirectionDegrees,WindSpeedMPH,WindSpeedGustMPH,Humidity,HourlyPrecipIn,Conditions,Clouds,dailyrainin,SoftwareType,DateUTC
2013-04-18 00:03:00,56.3,38.8,30.68,SE,135,0.0,0.0,52,0.00,,,0.00,WUHU216HW,2013-04-18 04:03:00,
2013-04-18 00:08:00,56.3,38.8,30.68,SE,135,0.0,0.0,52,0.00,,,0.00,WUHU216HW,2013-04-18 04:08:00,
2013-04-18 00:13:00,56.3,39.3,30.68,SE,135,0.0,0.0,53,0.00,,,0.00,WUHU216HW,2013-04-18 04:13:00,
2013-04-18 00:18:00,56.1,38.6,30.68,SE,135,0.0,0.0,52,0.00,,,0.00,WUHU216HW,2013-04-18 04:18:00,
2013-04-18 00:23:00,56.1,38.6,30.69,SE,135,0.0,0.0,52,0.00,,,0.00,WUHU216HW,2013-04-18 04:23:00,
2013-04-18 00:28:00,56.1,39.1,30.69,SE,135,0.0,0.0,53,0.00,,,0.00,WUHU216HW,2013-04-18 04:28:00,
2013-04-18 00:33:00,56.1,39.1,30.69,SE,135,0.0,0.0,53,0.00,,,0.00,WUHU216HW,2013-04-18 04:33:00,
2013-04-18 00:38:00,55.9,39.4,30.69,SE,135,0.0,0.0,54,0.00,,,0.00,WUHU216HW,2013-04-18 04:38:00,
2013-04-18 00:43:00,55.9,39.9,30.69,SE,135,0.0,0.0,55,0.00,,,0.00,WUHU216HW,2013-04-18 04:43:00,
2013-04-18 00:48:00,55.7,39.7,30.69,SE,135,0.0,0.0,55,0.00,,,0.00,WUHU216HW,2013-04-18 04:48:00,
2013-04-18 00:53:00,55.5,39.5,30.69,SE,135,0.0,0.8,55,0.00,,,0.00,WUHU216HW,2013-04-18 04:53:00,
2013-04-18 00:58:00,55.4,39.3,30.69,SE,135,0.0,0.8,55,0.00,,,0.00,WUHU216HW,2013-04-18 04:58:00,
2013-04-18 01:03:00,55.2,39.6,30.69,SE,135,0.0,0.0,56,0.00,,,0.00,WUHU216HW,2013-04-18 05:03:00,
2013-04-18 01:08:00,55.2,39.6,30.69,SE,135,0.0,0.0,56,0.00,,,0.00,WUHU216HW,2013-04-18 05:08:00,
2013-04-18 01:13:00,55.0,39.5,30.69,SE,135,0.0,0.0,56,0.00,,,0.00,WUHU216HW,2013-04-18 05:13:00,
2013-04-18 01:18:00,55.0,39.9,30.69,SE,135,0.0,0.0,57,0.00,,,0.00,WUHU216HW,2013-04-18 05:18:00,
2013-04-18 01:23:00,54.6,39.6,30.68,SE,135,0.0,0.0,57,0.00,,,0.00,WUHU216HW,2013-04-18 05:23:00,
2013-04-18 01:28:00,54.6,39.6,30.68,SE,135,0.0,0.0,57,0.00,,,0.00,WUHU216HW,2013-04-18 05:28:00,
2013-04-18 01:33:00,54.5,39.9,30.68,SE,135,0.0,0.0,57,0.00,,,0.00,WUHU216HW,2013-04-18 05:33:00,
2013-04-18 01:38:00,54.3,39.8,30.68,SE,135,0.0,0.0,58,0.00,,,0.00,WUHU216HW,2013-04-18 05:38:00,
2013-04-18 01:43:00,54.3,39.8,30.68,SE,135,0.0,0.0,58,0.00,,,0.00,WUHU216HW,2013-04-18 05:43:00,
2013-04-18 01:48:00,54.1,39.6,30.68,SE,135,0.0,0.0,58,0.00,,,0.00,WUHU216HW,2013-04-18 05:48:00,
2013-04-18 01:53:00,54.1,40.1,30.68,SE,135,0.0,0.0,59,0.00,,,0.00,WUHU216HW,2013-04-18 05:53:00,
2013-04-18 01:58:00,54.1,40.1,30.68,SE,135,0.0,0.0,59,0.00,,,0.00,WUHU216HW,2013-04-18 05:58:00,
2013-04-18 02:03:00,53.9,39.9,30.68,SE,135,0.0,0.0,59,0.00,,,0.00,WUHU216HW,2013-04-18 06:03:00,
2013-04-18 02:08:00,53.7,39.7,30.67,SE,135,0.0,0.0,59,0.00,,,0.00,WUHU216HW,2013-04-18 06:08:00,
2013-04-18 02:13:00,53.7,39.7,30.67,SE,135,0.0,0.0,59,0.00,,,0.00,WUHU216HW,2013-04-18 06:13:00,
2013-04-18 02:18:00,53.7,39.3,30.67,SE,135,0.0,3.1,58,0.00,,,0.00,WUHU216HW,2013-04-18 06:18:00,
2013-04-18 02:23:00,53.7,39.3,30.67,SE,135,0.0,3.1,58,0.00,,,0.00,WUHU216HW,2013-04-18 06:23:00,
2013-04-18 02:28:00,53.4,38.9,30.67,SE,135,2.6,2.6,58,0.00,,,0.00,WUHU216HW,2013-04-18 06:28:00,
2013-04-18 02:34:00,53.4,39.4,30.67,SE,135,0.0,2.6,59,0.00,,,0.00,WUHU216HW,2013-04-18 06:34:00,
2013-04-18 02:39:00,53.2,39.2,30.68,ESE,113,0.0,0.0,59,0.00,,,0.00,WUHU216HW,2013-04-18 06:39:00,
2013-04-18 02:44:00,53.0,39.0,30.68,SE,135,0.0,0.0,59,0.00,,,0.00,WUHU216HW,2013-04-18 06:44:00,
2013-04-18 02:49:00,52.8,39.3,30.68,ESE,113,0.0,0.0,60,0.00,,,0.00,WUHU216HW,2013-04-18 06:49:00,
2013-04-18 02:54:00,52.7,39.2,30.68,SE,135,0.0,0.0,60,0.00,,,0.00,WUHU216HW,2013-04-18 06:54:00,
2013-04-18 02:59:00,52.7,39.2,30.69,ESE,113,0.0,0.0,60,0.00,,,0.00,WUHU216HW,2013-04-18 06:59:00,
2013-04-18 03:04:00,52.5,39.0,30.69,SE,135,0.0,0.8,60,0.00,,,0.00,WUHU216HW,2013-04-18 07:04:00,
2013-04-18 03:09:00,52.3,38.8,30.70,SE,135,0.0,0.8,60,0.00,,,0.00,WUHU216HW,2013-04-18 07:09:00,
2013-04-18 03:14:00,52.3,39.2,30.70,ESE,113,0.0,0.0,61,0.00,,,0.00,WUHU216HW,2013-04-18 07:14:00,
2013-04-18 03:19:00,52.3,39.2,30.70,SE,135,0.0,0.0,61,0.00,,,0.00,WUHU216HW,2013-04-18 07:19:00,
2013-04-18 03:24:00,52.3,39.2,30.70,ESE,113,0.0,0.0,61,0.00,,,0.00,WUHU216HW,2013-04-18 07:24:00,
2013-04-18 03:29:00,52.1,39.0,30.70,ESE,113,0.0,0.0,61,0.00,,,0.00,WUHU216HW,2013-04-18 07:29:00,
2013-04-18 03:34:00,52.1,39.4,30.70,SE,135,0.0,0.0,62,0.00,,,0.00,WUHU216HW,2013-04-18 07:34:00,
2013-04-18 03:39:00,51.9,39.2,30.70,ESE,113,0.2,0.2,62,0.00,,,0.00,WUHU216HW,2013-04-18 07:39:00,
2013-04-18 03:44:00,51.9,39.2,30.70,SE,135,2.9,2.9,62,0.00,,,0.00,WUHU216HW,2013-04-18 07:44:00,
2013-04-18 03:49:00,51.6,39.3,30.70,SE,135,0.0,3.5,63,0.00,,,0.00,WUHU216HW,2013-04-18 07:49:00,
2013-04-18 03:54:00,51.6,39.3,30.70,SE,135,0.0,3.5,63,0.00,,,0.00,WUHU216HW,2013-04-18 07:54:00,
2013-04-18 03:59:00,51.6,39.7,30.70,SE,135,5.3,5.3,64,0.00,,,0.00,WUHU216HW,2013-04-18 07:59:00,
2013-04-18 04:04:00,51.6,40.1,30.70,SE,135,5.1,5.3,65,0.00,,,0.00,WUHU216HW,2013-04-18 08:04:00,
2013-04-18 04:09:00,51.6,40.1,30.71,ESE,113,6.4,6.4,65,0.00,,,0.00,WUHU216HW,2013-04-18 08:09:00,
2013-04-18 04:14:00,51.6,40.1,30.71,SE,135,0.0,6.4,65,0.00,,,0.00,WUHU216HW,2013-04-18 08:14:00,
2013-04-18 04:19:00,51.4,39.6,30.71,SE,135,0.0,0.0,64,0.00,,,0.00,WUHU216HW,2013-04-18 08:19:00,
2013-04-18 04:24:00,51.4,39.6,30.71,ESE,113,0.0,0.0,64,0.00,,,0.00,WUHU216HW,2013-04-18 08:24:00,
2013-04-18 04:29:00,51.4,40.0,30.70,SE,135,0.0,0.0,65,0.00,,,0.00,WUHU216HW,2013-04-18 08:29:00,
2013-04-18 04:34:00,51.2,39.8,30.70,SE,135,0.0,0.0,65,0.00,,,0.00,WUHU216HW,2013-04-18 08:34:00,
2013-04-18 04:39:00,51.2,39.8,30.71,SE,135,0.0,0.0,65,0.00,,,0.00,WUHU216HW,2013-04-18 08:39:00,
2013-04-18 04:44:00,51.2,40.2,30.71,SE,135,0.0,0.0,66,0.00,,,0.00,WUHU216HW,2013-04-18 08:44:00,
2013-04-18 04:49:00,51.2,40.2,30.70,SE,135,0.0,0.0,66,0.00,,,0.00,WUHU216HW,2013-04-18 08:49:00,
2013-04-18 04:54:00,51.0,40.4,30.70,SE,135,0.0,0.0,67,0.00,,,0.00,WUHU216HW,2013-04-18 08:54:00,
2013-04-18 04:59:00,51.0,40.8,30.70,SE,135,0.0,0.0,68,0.00,,,0.00,WUHU216HW,2013-04-18 08:59:00,
2013-04-18 05:04:00,51.2,41.0,30.70,SE,135,0.0,0.0,68,0.00,,,0.00,WUHU216HW,2013-04-18 09:04:00,
2013-04-18 05:09:00,51.0,40.8,30.70,SE,135,0.0,0.0,68,0.00,,,0.00,WUHU216HW,2013-04-18 09:09:00,
2013-04-18 05:14:00,51.0,41.3,30.70,SE,135,0.0,0.0,69,0.00,,,0.00,WUHU216HW,2013-04-18 09:14:00,
2013-04-18 05:19:00,51.0,41.3,30.70,SE,135,0.0,0.0,69,0.00,,,0.00,WUHU216HW,2013-04-18 09:19:00,
2013-04-18 05:24:00,51.0,41.3,30.70,SE,135,0.0,0.0,69,0.00,,,0.00,WUHU216HW,2013-04-18 09:24:00,
2013-04-18 05:29:00,51.0,41.3,30.70,ESE,113,0.0,0.0,69,0.00,,,0.00,WUHU216HW,2013-04-18 09:29:00,
2013-04-18 05:34:00,51.0,41.3,30.70,SE,135,0.0,0.0,69,0.00,,,0.00,WUHU216HW,2013-04-18 09:34:00,
2013-04-18 05:39:00,51.0,41.7,30.70,SE,135,0.0,0.0,70,0.00,,,0.00,WUHU216HW,2013-04-18 09:39:00,
2013-04-18 05:44:00,50.9,41.5,30.70,SE,135,0.0,0.0,70,0.00,,,0.00,WUHU216HW,2013-04-18 09:44:00,
2013-04-18 05:49:00,50.9,41.5,30.70,SE,135,0.0,0.0,70,0.00,,,0.00,WUHU216HW,2013-04-18 09:49:00,
2013-04-18 05:54:00,50.9,41.5,30.70,SE,135,0.0,0.0,70,0.00,,,0.00,WUHU216HW,2013-04-18 09:54:00,
2013-04-18 05:59:00,50.7,41.3,30.70,SE,135,0.0,0.0,70,0.00,,,0.00,WUHU216HW,2013-04-18 09:59:00,
2013-04-18 06:04:00,50.7,41.3,30.70,SE,135,0.0,0.0,70,0.00,,,0.00,WUHU216HW,2013-04-18 10:04:00,
2013-04-18 06:09:00,50.7,41.3,30.70,SE,135,0.0,0.0,70,0.00,,,0.00,WUHU216HW,2013-04-18 10:09:00,
2013-04-18 06:14:00,50.7,41.7,30.70,SE,135,0.0,0.0,71,0.00,,,0.00,WUHU216HW,2013-04-18 10:14:00,
2013-04-18 06:19:00,50.7,41.7,30.70,SE,135,0.0,0.0,71,0.00,,,0.00,WUHU216HW,2013-04-18 10:19:00,
2013-04-18 06:24:00,50.7,41.7,30.70,SE,135,0.0,0.0,71,0.00,,,0.00,WUHU216HW,2013-04-18 10:24:00,
2013-04-18 06:29:00,50.7,41.7,30.71,SE,135,0.0,0.0,71,0.00,,,0.00,WUHU216HW,2013-04-18 10:29:00,
2013-04-18 06:34:00,50.7,41.7,30.71,SE,135,0.0,0.0,71,0.00,,,0.00,WUHU216HW,2013-04-18 10:34:00,
2013-04-18 06:39:00,50.7,41.7,30.71,SE,135,0.0,0.0,71,0.00,,,0.00,WUHU216HW,2013-04-18 10:39:00,
2013-04-18 06:44:00,50.7,41.7,30.72,SE,135,0.0,0.0,71,0.00,,,0.00,WUHU216HW,2013-04-18 10:44:00,
2013-04-18 06:49:00,50.7,41.7,30.72,SE,135,0.0,0.0,71,0.00,,,0.00,WUHU216HW,2013-04-18 10:49:00,
2013-04-18 06:54:00,50.7,41.7,30.72,SE,135,0.0,0.0,71,0.00,,,0.00,WUHU216HW,2013-04-18 10:54:00,
2013-04-18 06:59:00,50.7,41.7,30.72,SE,135,0.0,0.0,71,0.00,,,0.00,WUHU216HW,2013-04-18 10:59:00,
2013-04-18 07:04:00,50.9,41.8,30.73,SE,135,0.0,0.0,71,0.00,,,0.00,WUHU216HW,2013-04-18 11:04:00,
2013-04-18 07:09:00,51.0,42.0,30.72,SE,135,0.0,0.0,71,0.00,,,0.00,WUHU216HW,2013-04-18 11:09:00,
2013-04-18 07:14:00,51.0,42.0,30.73,SE,135,0.0,0.0,71,0.00,,,0.00,WUHU216HW,2013-04-18 11:14:00,
2013-04-18 07:19:00,51.4,42.4,30.73,SE,135,0.0,0.0,71,0.00,,,0.00,WUHU216HW,2013-04-18 11:19:00,
2013-04-18 07:24:00,51.4,42.4,30.73,SE,135,0.0,0.0,71,0.00,,,0.00,WUHU216HW,2013-04-18 11:24:00,
2013-04-18 07:29:00,51.4,42.4,30.72,SE,135,0.0,0.0,71,0.00,,,0.00,WUHU216HW,2013-04-18 11:29:00,
2013-04-18 07:34:00,51.6,42.6,30.72,SSE,158,0.0,0.0,71,0.00,,,0.00,WUHU216HW,2013-04-18 11:34:00,
2013-04-18 07:39:00,51.6,42.6,30.72,SE,135,0.0,0.0,71,0.00,,,0.00,WUHU216HW,2013-04-18 11:39:00,
2013-04-18 07:44:00,51.9,42.9,30.72,SE,135,0.0,0.0,71,0.00,,,0.00,WUHU216HW,2013-04-18 11:44:00,
2013-04-18 07:49:00,52.1,42.7,30.72,SSE,158,0.0,0.0,70,0.00,,,0.00,WUHU216HW,2013-04-18 11:49:00,
2013-04-18 07:54:00,52.3,42.5,30.72,SE,135,0.0,0.0,69,0.00,,,0.00,WUHU216HW,2013-04-18 11:54:00,
2013-04-18 07:59:00,52.7,42.0,30.72,SSE,158,0.0,0.0,67,0.00,,,0.00,WUHU216HW,2013-04-18 11:59:00,
2013-04-18 08:04:00,52.8,42.1,30.71,SE,135,0.0,0.0,67,0.00,,,0.00,WUHU216HW,2013-04-18 12:04:00,
2013-04-18 08:09:00,53.2,42.1,30.71,ESE,113,0.0,0.0,66,0.00,,,0.00,WUHU216HW,2013-04-18 12:09:00,
2013-04-18 08:14:00,53.7,42.2,30.72,SSE,158,1.5,4.4,65,0.00,,,0.00,WUHU216HW,2013-04-18 12:14:00,
2013-04-18 08:19:00,54.1,41.7,30.72,ESE,113,4.9,7.1,63,0.00,,,0.00,WUHU216HW,2013-04-18 12:19:00,
2013-04-18 08:24:00,54.3,41.5,30.72,SSE,158,0.0,7.1,62,0.00,,,0.00,WUHU216HW,2013-04-18 12:24:00,
2013-04-18 08:29:00,54.6,41.0,30.72,SE,135,2.9,6.9,60,0.00,,,0.00,WUHU216HW,2013-04-18 12:29:00,
2013-04-18 08:34:00,55.0,41.3,30.72,SE,135,4.4,6.9,60,0.00,,,0.00,WUHU216HW,2013-04-18 12:34:00,
2013-04-18 08:39:00,55.0,40.9,30.72,SSE,158,0.0,4.4,59,0.00,,,0.00,WUHU216HW,2013-04-18 12:39:00,
2013-04-18 08:44:00,55.4,40.3,30.72,SE,135,8.5,8.5,57,0.00,,,0.00,WUHU216HW,2013-04-18 12:44:00,
2013-04-18 08:49:00,55.5,39.5,30.72,SE,135,6.4,8.5,55,0.00,,,0.00,WUHU216HW,2013-04-18 12:49:00,
2013-04-18 08:54:00,55.7,39.2,30.72,SE,135,0.0,6.4,54,0.00,,,0.00,WUHU216HW,2013-04-18 12:54:00,
2013-04-18 08:59:00,56.1,39.6,30.71,SE,135,1.3,7.8,54,0.00,,,0.00,WUHU216HW,2013-04-18 12:59:00,
2013-04-18 09:04:00,56.3,39.8,30.72,SSW,203,0.0,7.8,54,0.00,,,0.00,WUHU216HW,2013-04-18 13:04:00,
2013-04-18 09:09:00,57.0,40.0,30.71,SE,135,5.5,5.5,53,0.00,,,0.00,WUHU216HW,2013-04-18 13:09:00,
2013-04-18 09:14:00,58.1,40.1,30.71,SE,135,10.5,10.5,51,0.00,,,0.00,WUHU216HW,2013-04-18 13:14:00,
2013-04-18 09:19:00,58.6,39.5,30.72,SE,135,1.7,10.5,49,0.00,,,0.00,WUHU216HW,2013-04-18 13:19:00,
2013-04-18 09:24:00,58.8,39.1,30.72,SE,135,7.8,10.5,48,0.00,,,0.00,WUHU216HW,2013-04-18 13:24:00,
2013-04-18 09:29:00,58.8,38.5,30.72,ESE,113,6.0,9.6,47,0.00,,,0.00,WUHU216HW,2013-04-18 13:29:00,
2013-04-18 09:34:00,58.4,38.2,30.72,SE,135,7.8,9.6,47,0.00,,,0.00,WUHU216HW,2013-04-18 13:34:00,
2013-04-18 09:39:00,58.4,38.8,30.72,SE,135,5.8,7.8,48,0.00,,,0.00,WUHU216HW,2013-04-18 13:39:00,
2013-04-18 09:44:00,58.4,38.2,30.72,South,180,0.0,5.8,47,0.00,,,0.00,WUHU216HW,2013-04-18 13:44:00,
2013-04-18 09:49:00,58.2,38.0,30.73,SE,135,0.0,2.4,47,0.00,,,0.00,WUHU216HW,2013-04-18 13:49:00,
2013-04-18 09:54:00,58.2,38.6,30.73,ESE,113,5.8,5.8,48,0.00,,,0.00,WUHU216HW,2013-04-18 13:54:00,
2013-04-18 09:59:00,57.9,38.3,30.73,East,90,6.9,6.9,48,0.00,,,0.00,WUHU216HW,2013-04-18 13:59:00,
2013-04-18 10:04:00,57.7,38.1,30.73,ESE,113,6.4,6.9,48,0.00,,,0.00,WUHU216HW,2013-04-18 14:04:00,
2013-04-18 10:09:00,57.7,38.1,30.73,SE,135,8.2,8.2,48,0.00,,,0.00,WUHU216HW,2013-04-18 14:09:00,
2013-04-18 10:14:00,57.7,38.7,30.73,SE,135,5.1,8.2,49,0.00,,,0.00,WUHU216HW,2013-04-18 14:14:00,
2013-04-18 10:19:00,57.7,39.3,30.73,ESE,113,0.2,6.7,50,0.00,,,0.00,WUHU216HW,2013-04-18 14:19:00,
2013-04-18 10:24:00,57.7,39.1,30.74,SSE,158,4.6,6.9,50,0.00,,,0.00,WUHU216HW,2013-04-18 14:24:00,
2013-04-18 10:29:00,57.5,39.1,30.74,ESE,113,12.0,12.0,50,0.00,,,0.00,WUHU216HW,2013-04-18 14:29:00,
2013-04-18 10:34:00,57.5,39.1,30.73,SE,135,7.8,12.0,50,0.00,,,0.00,WUHU216HW,2013-04-18 14:34:00,
2013-04-18 10:39:00,57.5,39.0,30.73,SE,135,0.0,12.0,50,0.00,,,0.00,WUHU216HW,2013-04-18 14:39:00,
2013-04-18 10:44:00,57.3,39.0,30.73,South,180,5.5,7.3,50,0.00,,,0.00,WUHU216HW,2013-04-18 14:44:00,
2013-04-18 10:49:00,57.3,39.0,30.74,SE,135,4.2,5.5,50,0.00,,,0.00,WUHU216HW,2013-04-18 14:49:00,
2013-04-18 10:54:00,57.3,39.0,30.73,SE,135,0.0,6.7,50,0.00,,,0.00,WUHU216HW,2013-04-18 14:54:00,
2013-04-18 10:59:00,57.3,38.4,30.73,SE,135,5.5,6.7,49,0.00,,,0.00,WUHU216HW,2013-04-18 14:59:00,
2013-04-18 11:04:00,57.3,39.0,30.72,SE,135,0.0,7.6,50,0.00,,,0.00,WUHU216HW,2013-04-18 15:04:00,
2013-04-18 11:09:00,57.5,39.1,30.72,SE,135,5.3,10.0,50,0.00,,,0.00,WUHU216HW,2013-04-18 15:09:00,
2013-04-18 11:14:00,57.7,39.3,30.73,SE,135,6.7,10.0,50,0.00,,,0.00,WUHU216HW,2013-04-18 15:14:00,
2013-04-18 11:19:00,57.9,39.4,30.73,WSW,248,0.0,6.7,50,0.00,,,0.00,WUHU216HW,2013-04-18 15:19:00,
2013-04-18 11:24:00,57.9,39.4,30.73,SE,135,6.9,7.3,50,0.00,,,0.00,WUHU216HW,2013-04-18 15:24:00,
2013-04-18 11:29:00,57.9,38.9,30.73,SSE,158,5.5,7.3,49,0.00,,,0.00,WUHU216HW,2013-04-18 15:29:00,
2013-04-18 11:34:00,58.1,39.6,30.73,SE,135,7.1,7.3,50,0.00,,,0.00,WUHU216HW,2013-04-18 15:34:00,
2013-04-18 11:39:00,58.2,39.2,30.73,SSE,158,3.5,7.1,49,0.00,,,0.00,WUHU216HW,2013-04-18 15:39:00,
2013-04-18 11:44:00,58.2,39.8,30.73,SE,135,10.9,10.9,50,0.00,,,0.00,WUHU216HW,2013-04-18 15:44:00,
2013-04-18 11:49:00,58.2,39.2,30.73,SE,135,4.4,10.9,49,0.00,,,0.00,WUHU216HW,2013-04-18 15:49:00,
2013-04-18 11:54:00,58.1,39.0,30.73,East,90,6.9,10.9,49,0.00,,,0.00,WUHU216HW,2013-04-18 15:54:00,
2013-04-18 11:59:00,57.9,39.4,30.72,SSE,158,3.8,7.3,50,0.00,,,0.00,WUHU216HW,2013-04-18 15:59:00,
2013-04-18 12:04:00,57.9,39.4,30.72,SE,135,6.0,7.3,50,0.00,,,0.00,WUHU216HW,2013-04-18 16:04:00,
2013-04-18 12:09:00,57.9,39.3,30.71,SE,135,6.9,7.3,50,0.00,,,0.00,WUHU216HW,2013-04-18 16:09:00,
2013-04-18 12:14:00,57.3,39.4,30.71,SE,135,0.0,7.6,51,0.00,,,0.00,WUHU216HW,2013-04-18 16:14:00,
2013-04-18 12:19:00,57.3,39.4,30.71,SE,135,7.1,7.6,51,0.00,,,0.00,WUHU216HW,2013-04-18 16:19:00,
2013-04-18 12:24:00,57.5,39.6,30.71,SE,135,6.9,7.1,51,0.00,,,0.00,WUHU216HW,2013-04-18 16:24:00,
2013-04-18 12:29:00,57.3,39.9,30.71,SSE,158,2.9,11.4,52,0.00,,,0.00,WUHU216HW,2013-04-18 16:29:00,
2013-04-18 12:34:00,57.3,40.4,30.71,SE,135,0.0,11.4,53,0.00,,,0.00,WUHU216HW,2013-04-18 16:34:00,
2013-04-18 12:39:00,57.3,40.4,30.71,SSE,158,0.0,6.4,53,0.00,,,0.00,WUHU216HW,2013-04-18 16:39:00,
2013-04-18 12:44:00,57.3,40.8,30.71,SE,135,11.4,11.4,54,0.00,,,0.00,WUHU216HW,2013-04-18 16:44:00,
2013-04-18 12:49:00,57.0,40.5,30.71,SSE,158,7.3,11.4,54,0.00,,,0.00,WUHU216HW,2013-04-18 16:49:00,
2013-04-18 12:54:00,56.8,40.8,30.71,ESE,113,6.4,11.4,55,0.00,,,0.00,WUHU216HW,2013-04-18 16:54:00,
2013-04-18 12:59:00,56.8,40.8,30.71,SE,135,7.6,7.6,55,0.00,,,0.00,WUHU216HW,2013-04-18 16:59:00,
2013-04-18 13:04:00,56.8,41.2,30.71,SE,135,5.1,7.6,56,0.00,,,0.00,WUHU216HW,2013-04-18 17:04:00,
2013-04-18 13:09:00,56.8,41.1,30.71,SE,135,0.0,7.6,57,0.00,,,0.00,WUHU216HW,2013-04-18 17:09:00,
2013-04-18 13:14:00,56.8,41.7,30.70,SSE,158,8.2,8.2,57,0.00,,,0.00,WUHU216HW,2013-04-18 17:14:00,
2013-04-18 13:19:00,56.8,42.2,30.70,ESE,113,6.2,8.2,58,0.00,,,0.00,WUHU216HW,2013-04-18 17:19:00,
2013-04-18 13:24:00,56.6,42.5,30.70,ESE,113,4.4,8.2,59,0.00,,,0.00,WUHU216HW,2013-04-18 17:24:00,
2013-04-18 13:29:00,56.4,42.3,30.70,SE,135,3.5,4.4,59,0.00,,,0.00,WUHU216HW,2013-04-18 17:29:00,
2013-04-18 13:34:00,56.4,42.3,30.70,ESE,113,5.5,9.1,59,0.00,,,0.00,WUHU216HW,2013-04-18 17:34:00,
2013-04-18 13:39:00,56.3,42.6,30.70,SE,135,7.3,9.1,60,0.00,,,0.00,WUHU216HW,2013-04-18 17:39:00,
2013-04-18 13:45:00,56.3,42.6,30.70,SE,135,2.4,12.0,60,0.00,,,0.00,WUHU216HW,2013-04-18 17:45:00,
2013-04-18 13:50:00,56.1,42.4,30.69,SSE,158,5.5,12.0,60,0.00,,,0.00,WUHU216HW,2013-04-18 17:50:00,
2013-04-18 13:55:00,56.1,42.8,30.69,SE,135,4.2,7.8,61,0.00,,,0.00,WUHU216HW,2013-04-18 17:55:00,
2013-04-18 14:00:00,55.9,42.6,30.69,SE,135,1.5,7.1,61,0.00,,,0.00,WUHU216HW,2013-04-18 18:00:00,
2013-04-18 14:05:00,55.9,42.6,30.69,SE,135,10.0,10.0,61,0.00,,,0.00,WUHU216HW,2013-04-18 18:05:00,
2013-04-18 14:10:00,55.9,42.6,30.69,SE,135,4.6,10.0,61,0.00,,,0.00,WUHU216HW,2013-04-18 18:10:00,
2013-04-18 14:15:00,56.1,42.8,30.68,SE,135,4.6,5.1,61,0.00,,,0.00,WUHU216HW,2013-04-18 18:15:00,
2013-04-18 14:20:00,56.4,43.1,30.69,SSE,158,0.0,6.2,61,0.00,,,0.00,WUHU216HW,2013-04-18 18:20:00,
2013-04-18 14:25:00,56.8,43.5,30.68,SE,135,8.7,8.7,61,0.00,,,0.00,WUHU216HW,2013-04-18 18:25:00,
2013-04-18 14:30:00,57.0,43.3,30.67,SE,135,5.5,8.7,60,0.00,,,0.00,WUHU216HW,2013-04-18 18:30:00,
2013-04-18 14:35:00,57.0,43.3,30.67,SE,135,0.8,11.4,60,0.00,,,0.00,WUHU216HW,2013-04-18 18:35:00,
2013-04-18 14:40:00,57.3,43.6,30.67,SSE,158,0.0,11.4,60,0.00,,,0.00,WUHU216HW,2013-04-18 18:40:00,
2013-04-18 14:45:00,57.3,43.6,30.67,SE,135,6.4,7.6,60,0.00,,,0.00,WUHU216HW,2013-04-18 18:45:00,
2013-04-18 14:50:00,57.3,44.0,30.67,SE,135,3.8,6.4,61,0.00,,,0.00,WUHU216HW,2013-04-18 18:50:00,
2013-04-18 14:55:00,57.3,44.0,30.67,SE,135,2.4,6.4,61,0.00,,,0.00,WUHU216HW,2013-04-18 18:55:00,
2013-04-18 15:00:00,57.3,44.0,30.67,SE,135,7.6,7.6,61,0.00,,,0.00,WUHU216HW,2013-04-18 19:00:00,
2013-04-18 15:05:00,57.3,44.4,30.67,East,90,0.0,7.6,62,0.00,,,0.00,WUHU216HW,2013-04-18 19:05:00,
2013-04-18 15:10:00,57.0,44.1,30.67,ESE,113,6.7,7.6,62,0.00,,,0.00,WUHU216HW,2013-04-18 19:10:00,
2013-04-18 15:15:00,56.8,43.9,30.67,SSE,158,2.4,6.7,62,0.00,,,0.00,WUHU216HW,2013-04-18 19:15:00,
2013-04-18 15:20:00,56.8,44.3,30.66,SE,135,0.0,6.7,63,0.00,,,0.00,WUHU216HW,2013-04-18 19:20:00,
2013-04-18 15:25:00,56.4,44.0,30.66,SE,135,3.5,6.4,63,0.00,,,0.00,WUHU216HW,2013-04-18 19:25:00,
2013-04-18 15:30:00,56.4,44.0,30.66,SE,135,5.5,6.4,63,0.00,,,0.00,WUHU216HW,2013-04-18 19:30:00,
2013-04-18 15:35:00,56.3,44.2,30.66,SE,135,6.0,6.9,64,0.00,,,0.00,WUHU216HW,2013-04-18 19:35:00,
2013-04-18 15:40:00,55.9,44.2,30.65,SE,135,6.2,10.2,65,0.00,,,0.00,WUHU216HW,2013-04-18 19:40:00,
2013-04-18 15:45:00,55.9,44.2,30.65,SE,135,6.4,10.2,65,0.00,,,0.00,WUHU216HW,2013-04-18 19:45:00,
2013-04-18 15:50:00,55.5,44.3,30.65,SE,135,6.0,6.4,66,0.00,,,0.00,WUHU216HW,2013-04-18 19:50:00,
2013-04-18 15:55:00,55.5,44.3,30.65,ESE,113,6.0,6.0,66,0.00,,,0.00,WUHU216HW,2013-04-18 19:55:00,
2013-04-18 16:00:00,55.2,44.0,30.65,ESE,113,6.0,6.0,66,0.00,,,0.00,WUHU216HW,2013-04-18 20:00:00,
2013-04-18 16:05:00,55.0,44.2,30.64,SE,135,0.0,7.3,67,0.00,,,0.00,WUHU216HW,2013-04-18 20:05:00,
2013-04-18 16:10:00,55.0,44.6,30.64,SE,135,7.6,7.6,68,0.00,,,0.00,WUHU216HW,2013-04-18 20:10:00,
2013-04-18 16:15:00,54.8,44.9,30.64,ESE,113,7.1,7.6,69,0.00,,,0.00,WUHU216HW,2013-04-18 20:15:00,
2013-04-18 16:20:00,54.6,44.7,30.64,SE,135,1.7,7.1,69,0.00,,,0.00,WUHU216HW,2013-04-18 20:20:00,
2013-04-18 16:25:00,54.5,44.5,30.63,SE,135,5.3,7.1,69,0.00,,,0.00,WUHU216HW,2013-04-18 20:25:00,
2013-04-18 16:30:00,54.5,44.5,30.63,WSW,248,0.0,5.5,69,0.00,,,0.00,WUHU216HW,2013-04-18 20:30:00,
2013-04-18 16:35:00,54.5,44.5,30.63,SE,135,6.9,11.1,69,0.00,,,0.00,WUHU216HW,2013-04-18 20:35:00,
2013-04-18 16:40:00,54.5,44.5,30.63,SE,135,2.0,11.1,69,0.00,,,0.00,WUHU216HW,2013-04-18 20:40:00,
2013-04-18 16:45:00,54.3,44.3,30.63,SE,135,0.4,7.1,69,0.00,,,0.00,WUHU216HW,2013-04-18 20:45:00,
2013-04-18 16:50:00,54.1,44.6,30.63,SE,135,5.1,7.8,70,0.00,,,0.00,WUHU216HW,2013-04-18 20:50:00,
2013-04-18 16:55:00,54.1,44.9,30.63,SE,135,6.4,8.0,71,0.00,,,0.00,WUHU216HW,2013-04-18 20:55:00,
2013-04-18 17:00:00,54.1,44.9,30.62,ESE,113,5.8,8.0,71,0.00,,,0.00,WUHU216HW,2013-04-18 21:00:00,
2013-04-18 17:05:00,53.7,45.3,30.62,ESE,113,5.8,5.8,73,0.00,,,0.00,WUHU216HW,2013-04-18 21:05:00,
2013-04-18 17:10:00,53.7,45.6,30.62,ESE,113,4.0,6.9,74,0.00,,,0.00,WUHU216HW,2013-04-18 21:10:00,
2013-04-18 17:15:00,53.4,45.3,30.62,ESE,113,5.1,6.9,74,0.00,,,0.00,WUHU216HW,2013-04-18 21:15:00,
2013-04-18 17:20:00,53.2,45.5,30.63,SSE,158,0.0,5.1,75,0.00,,,0.00,WUHU216HW,2013-04-18 21:20:00,
2013-04-18 17:25:00,53.2,45.5,30.63,SE,135,0.0,0.4,75,0.00,,,0.00,WUHU216HW,2013-04-18 21:25:00,
2013-04-18 17:30:00,53.2,45.8,30.62,ESE,113,7.1,7.1,76,0.00,,,0.00,WUHU216HW,2013-04-18 21:30:00,
2013-04-18 17:35:00,53.2,45.8,30.62,East,90,4.2,7.1,76,0.00,,,0.00,WUHU216HW,2013-04-18 21:35:00,
2013-04-18 17:40:00,53.2,45.8,30.62,ESE,113,0.0,5.5,76,0.00,,,0.00,WUHU216HW,2013-04-18 21:40:00,
2013-04-18 17:45:00,53.2,45.8,30.61,SE,135,0.0,5.5,76,0.00,,,0.00,WUHU216HW,2013-04-18 21:45:00,
2013-04-18 17:50:00,53.2,46.2,30.61,SW,225,3.5,3.5,77,0.00,,,0.00,WUHU216HW,2013-04-18 21:50:00,
2013-04-18 17:55:00,53.2,46.2,30.61,SE,135,3.8,4.4,77,0.00,,,0.00,WUHU216HW,2013-04-18 21:55:00,
2013-04-18 18:00:00,53.0,46.0,30.61,SE,135,0.0,4.4,77,0.00,,,0.00,WUHU216HW,2013-04-18 22:00:00,
2013-04-18 18:05:00,53.2,46.5,30.61,ESE,113,0.0,0.0,78,0.00,,,0.00,WUHU216HW,2013-04-18 22:05:00,
2013-04-18 18:10:00,53.2,46.5,30.60,SE,135,5.8,5.8,78,0.00,,,0.00,WUHU216HW,2013-04-18 22:10:00,
2013-04-18 18:15:00,53.2,46.5,30.60,SE,135,1.3,5.8,78,0.00,,,0.00,WUHU216HW,2013-04-18 22:15:00,
2013-04-18 18:20:00,53.4,46.7,30.60,SE,135,1.7,5.5,78,0.00,,,0.00,WUHU216HW,2013-04-18 22:20:00,
2013-04-18 18:25:00,53.4,46.7,30.59,SSE,158,0.0,6.4,78,0.00,,,0.00,WUHU216HW,2013-04-18 22:25:00,
2013-04-18 18:30:00,53.4,46.7,30.59,SE,135,0.4,6.7,78,0.00,,,0.00,WUHU216HW,2013-04-18 22:30:00,
2013-04-18 18:35:00,53.4,46.7,30.59,SSE,158,0.0,6.7,78,0.00,,,0.00,WUHU216HW,2013-04-18 22:35:00,
2013-04-18 18:40:00,53.6,46.9,30.59,SE,135,0.4,6.7,78,0.00,,,0.00,WUHU216HW,2013-04-18 22:40:00,
2013-04-18 18:45:00,53.6,47.1,30.58,ESE,113,7.8,7.8,78,0.00,,,0.00,WUHU216HW,2013-04-18 22:45:00,
2013-04-18 18:50:00,53.4,47.1,30.58,SSE,158,5.1,7.8,79,0.00,,,0.00,WUHU216HW,2013-04-18 22:50:00,
2013-04-18 18:55:00,53.7,47.4,30.58,SE,135,7.6,7.8,79,0.00,,,0.00,WUHU216HW,2013-04-18 22:55:00,
2013-04-18 19:00:00,53.4,47.1,30.58,SSE,158,0.0,7.6,79,0.00,,,0.00,WUHU216HW,2013-04-18 23:00:00,
2013-04-18 19:05:00,53.4,47.4,30.58,SSE,158,7.1,7.1,80,0.00,,,0.00,WUHU216HW,2013-04-18 23:05:00,
2013-04-18 19:10:00,53.4,47.4,30.57,SE,135,0.0,7.1,80,0.00,,,0.00,WUHU216HW,2013-04-18 23:10:00,
2013-04-18 19:15:00,53.4,47.4,30.58,SE,135,0.0,7.1,80,0.00,,,0.00,WUHU216HW,2013-04-18 23:15:00,
2013-04-18 19:20:00,53.4,47.4,30.58,South,180,0.0,0.4,80,0.00,,,0.00,WUHU216HW,2013-04-18 23:20:00,
2013-04-18 19:25:00,53.4,47.4,30.58,SE,135,0.0,0.0,80,0.00,,,0.00,WUHU216HW,2013-04-18 23:25:00,
2013-04-18 19:30:00,53.4,47.4,30.58,SE,135,0.0,0.0,80,0.00,,,0.00,WUHU216HW,2013-04-18 23:30:00,
2013-04-18 19:35:00,53.7,47.8,30.59,ESE,113,4.6,4.6,80,0.00,,,0.00,WUHU216HW,2013-04-18 23:35:00,
2013-04-18 19:40:00,53.7,47.8,30.58,SE,135,0.0,4.6,80,0.00,,,0.00,WUHU216HW,2013-04-18 23:40:00,
2013-04-18 19:45:00,53.7,47.8,30.58,SE,135,0.0,4.6,80,0.00,,,0.00,WUHU216HW,2013-04-18 23:45:00,
2013-04-18 19:50:00,53.7,47.8,30.57,SE,135,4.9,4.9,80,0.00,,,0.00,WUHU216HW,2013-04-18 23:50:00,
2013-04-18 19:55:00,53.7,47.8,30.57,SE,135,2.6,4.9,80,0.00,,,0.00,WUHU216HW,2013-04-18 23:55:00,
2013-04-18 20:00:00,53.9,48.2,30.57,SSE,158,0.0,4.9,81,0.00,,,0.00,WUHU216HW,2013-04-19 00:00:00,
2013-04-18 20:05:00,53.9,48.2,30.57,SE,135,5.3,5.3,81,0.00,,,0.00,WUHU216HW,2013-04-19 00:05:00,
2013-04-18 20:10:00,54.1,48.4,30.57,ESE,113,0.0,5.3,81,0.00,,,0.00,WUHU216HW,2013-04-19 00:10:00,
2013-04-18 20:15:00,54.1,48.4,30.57,SE,135,0.0,5.3,81,0.00,,,0.00,WUHU216HW,2013-04-19 00:15:00,
2013-04-18 20:20:00,54.1,48.4,30.57,ESE,113,0.0,0.0,81,0.00,,,0.00,WUHU216HW,2013-04-19 00:20:00,
2013-04-18 20:25:00,54.3,48.6,30.57,SE,135,1.1,1.1,81,0.00,,,0.00,WUHU216HW,2013-04-19 00:25:00,
2013-04-18 20:30:00,54.3,48.6,30.57,SE,135,4.0,4.0,81,0.00,,,0.00,WUHU216HW,2013-04-19 00:30:00,
2013-04-18 20:35:00,54.3,48.9,30.57,SE,135,0.0,4.0,82,0.00,,,0.00,WUHU216HW,2013-04-19 00:35:00,
2013-04-18 20:40:00,54.5,49.1,30.57,SE,135,0.0,4.0,82,0.00,,,0.00,WUHU216HW,2013-04-19 00:40:00,
2013-04-18 20:45:00,54.6,49.1,30.57,SE,135,0.0,0.0,82,0.00,,,0.00,WUHU216HW,2013-04-19 00:45:00,
2013-04-18 20:50:00,54.6,49.2,30.56,ESE,113,0.0,0.0,82,0.00,,,0.00,WUHU216HW,2013-04-19 00:50:00,
2013-04-18 20:55:00,54.6,49.5,30.56,SE,135,0.0,0.0,83,0.00,,,0.00,WUHU216HW,2013-04-19 00:55:00,
2013-04-18 21:00:00,54.6,49.5,30.56,SE,135,0.0,0.0,83,0.00,,,0.00,WUHU216HW,2013-04-19 01:00:00,
2013-04-18 21:05:00,54.6,49.5,30.56,SE,135,0.0,0.0,83,0.00,,,0.00,WUHU216HW,2013-04-19 01:05:00,
2013-04-18 21:10:00,54.6,49.5,30.56,SE,135,6.4,6.4,83,0.00,,,0.00,WUHU216HW,2013-04-19 01:10:00,
2013-04-18 21:15:00,54.5,49.4,30.56,East,90,0.0,6.4,83,0.00,,,0.00,WUHU216HW,2013-04-19 01:15:00,
2013-04-18 21:20:00,54.5,49.4,30.56,SE,135,0.0,6.0,83,0.00,,,0.00,WUHU216HW,2013-04-19 01:20:00,
2013-04-18 21:25:00,54.5,49.4,30.55,ESE,113,0.0,0.0,83,0.00,,,0.00,WUHU216HW,2013-04-19 01:25:00,
2013-04-18 21:30:00,54.3,49.5,30.55,SE,135,0.0,0.0,84,0.00,,,0.00,WUHU216HW,2013-04-19 01:30:00,
2013-04-18 21:35:00,54.3,49.5,30.55,SE,135,0.0,0.0,84,0.00,,,0.00,WUHU216HW,2013-04-19 01:35:00,
2013-04-18 21:40:00,54.5,49.7,30.55,ESE,113,0.0,0.0,84,0.00,,,0.00,WUHU216HW,2013-04-19 01:40:00,
2013-04-18 21:45:00,54.5,50.0,30.55,SE,135,0.0,2.4,85,0.00,,,0.00,WUHU216HW,2013-04-19 01:45:00,
2013-04-18 21:50:00,54.3,49.8,30.55,ESE,113,1.1,6.9,85,0.00,,,0.00,WUHU216HW,2013-04-19 01:50:00,
2013-04-18 21:55:00,54.1,49.6,30.54,East,90,0.0,6.9,85,0.00,,,0.00,WUHU216HW,2013-04-19 01:55:00,
2013-04-18 22:00:00,53.9,49.8,30.54,SE,135,2.4,7.3,86,0.00,,,0.00,WUHU216HW,2013-04-19 02:00:00,
2013-04-18 22:05:00,53.7,49.6,30.54,SSE,158,6.7,7.3,86,0.00,,,0.00,WUHU216HW,2013-04-19 02:05:00,
2013-04-18 22:10:00,53.7,49.6,30.54,SE,135,0.0,6.7,86,0.00,,,0.00,WUHU216HW,2013-04-19 02:10:00,
2013-04-18 22:15:00,53.7,49.6,30.54,ESE,113,0.0,6.7,86,0.00,,,0.00,WUHU216HW,2013-04-19 02:15:00,
2013-04-18 22:20:00,53.7,49.9,30.54,ESE,113,0.0,4.0,87,0.00,,,0.00,WUHU216HW,2013-04-19 02:20:00,
2013-04-18 22:25:00,53.6,49.8,30.53,ESE,113,0.0,0.0,87,0.00,,,0.00,WUHU216HW,2013-04-19 02:25:00,
2013-04-18 22:30:00,53.4,49.6,30.53,ESE,113,0.0,0.0,87,0.00,,,0.00,WUHU216HW,2013-04-19 02:30:00,
2013-04-18 22:35:00,53.4,49.6,30.52,East,90,0.0,0.0,87,0.00,,,0.00,WUHU216HW,2013-04-19 02:35:00,
2013-04-18 22:40:00,53.4,49.9,30.52,SE,135,0.0,3.3,88,0.00,,,0.00,WUHU216HW,2013-04-19 02:40:00,
2013-04-18 22:45:00,53.4,49.9,30.52,SE,135,0.0,3.3,88,0.00,,,0.00,WUHU216HW,2013-04-19 02:45:00,
2013-04-18 22:50:00,53.4,49.9,30.52,SE,135,6.9,6.9,88,0.00,,,0.00,WUHU216HW,2013-04-19 02:50:00,
2013-04-18 22:55:00,53.2,49.7,30.52,SE,135,0.0,6.9,88,0.00,,,0.00,WUHU216HW,2013-04-19 02:55:00,
2013-04-18 23:00:00,53.2,49.7,30.51,ESE,113,0.0,6.9,88,0.00,,,0.00,WUHU216HW,2013-04-19 03:00:00,
2013-04-18 23:05:00,52.8,49.6,30.51,SE,135,0.0,4.0,89,0.00,,,0.00,WUHU216HW,2013-04-19 03:05:00,
2013-04-18 23:10:00,52.8,49.6,30.51,ESE,113,0.0,0.0,89,0.00,,,0.00,WUHU216HW,2013-04-19 03:10:00,
2013-04-18 23:15:00,52.8,49.6,30.51,SE,135,0.0,2.6,89,0.00,,,0.00,WUHU216HW,2013-04-19 03:15:00,
2013-04-18 23:21:00,52.7,49.5,30.51,SE,135,6.4,6.4,89,0.00,,,0.00,WUHU216HW,2013-04-19 03:21:00,
2013-04-18 23:26:00,52.5,49.3,30.50,ESE,113,3.8,6.4,89,0.00,,,0.00,WUHU216HW,2013-04-19 03:26:00,
2013-04-18 23:31:00,52.5,49.3,30.50,ESE,113,0.0,6.4,89,0.00,,,0.00,WUHU216HW,2013-04-19 03:31:00,
2013-04-18 23:36:00,52.5,49.6,30.50,SE,135,0.0,4.2,90,0.00,,,0.00,WUHU216HW,2013-04-19 03:36:00,
2013-04-18 23:41:00,52.5,49.6,30.49,ESE,113,0.0,0.0,90,0.00,,,0.00,WUHU216HW,2013-04-19 03:41:00,
2013-04-18 23:46:00,52.5,49.6,30.49,SE,135,0.0,1.1,90,0.00,,,0.00,WUHU216HW,2013-04-19 03:46:00,
2013-04-18 23:51:00,52.5,49.6,30.49,SE,135,0.0,1.1,90,0.00,,,0.00,WUHU216HW,2013-04-19 03:51:00,
2013-04-18 23:56:00,52.7,49.8,30.49,SE,135,0.0,0.0,90,0.00,,,0.00,WUHU216HW,2013-04-19 03:56:00,